createdAt,value
2023-03-29T00:00:37.951Z,5.04
2023-03-29T00:01:37.939Z,5.02
2023-03-29T00:02:38.160Z,5.04
2023-03-29T00:03:38.018Z,5.05
2023-03-29T00:04:38.101Z,5.07
2023-03-29T00:05:37.908Z,4.99
2023-03-29T00:06:37.935Z,5.05
2023-03-29T00:07:37.914Z,4.94
2023-03-29T00:08:37.890Z,4.98
2023-03-29T00:09:37.849Z,4.89
2023-03-29T00:10:37.849Z,4.86
2023-03-29T00:11:37.833Z,4.94
2023-03-29T00:12:37.844Z,4.88
2023-03-29T00:13:37.811Z,4.92
2023-03-29T00:14:37.798Z,4.88
2023-03-29T00:15:37.788Z,4.86
2023-03-29T00:16:37.826Z,4.91
2023-03-29T00:17:37.897Z,4.86
2023-03-29T00:18:37.756Z,4.84
2023-03-29T00:19:37.745Z,4.79
2023-03-29T00:20:37.766Z,4.88
2023-03-29T00:21:37.724Z,4.89
2023-03-29T00:22:37.732Z,4.95
2023-03-29T00:23:37.701Z,4.98
2023-03-29T00:24:37.701Z,5.10
2023-03-29T00:25:37.680Z,5.10
2023-03-29T00:26:37.675Z,5.13
2023-03-29T00:27:37.680Z,5.17
2023-03-29T00:28:37.654Z,5.17
2023-03-29T00:29:37.634Z,5.17
2023-03-29T00:30:37.640Z,5.22
2023-03-29T00:31:37.668Z,5.25
2023-03-29T00:32:37.717Z,5.23
2023-03-29T00:33:37.623Z,5.31
2023-03-29T00:34:37.586Z,5.30
2023-03-29T00:35:37.596Z,5.28
2023-03-29T00:36:37.584Z,5.22
2023-03-29T00:37:37.566Z,5.23
2023-03-29T00:38:37.541Z,5.20
2023-03-29T00:39:37.533Z,5.19
2023-03-29T00:40:37.523Z,5.27
2023-03-29T00:41:37.518Z,5.25
2023-03-29T00:42:37.528Z,5.27
2023-03-29T00:43:37.497Z,5.31
2023-03-29T00:44:37.484Z,5.31
2023-03-29T00:45:37.462Z,5.34
2023-03-29T00:46:37.516Z,5.35
2023-03-29T00:47:37.510Z,5.40
2023-03-29T00:48:37.455Z,5.37
2023-03-29T00:49:37.426Z,5.30
2023-03-29T00:50:37.412Z,5.17
2023-03-29T00:51:37.412Z,5.17
2023-03-29T00:52:37.434Z,5.14
2023-03-29T00:53:37.381Z,5.10
2023-03-29T00:54:37.370Z,5.09
2023-03-29T00:55:37.377Z,5.16
2023-03-29T00:56:37.480Z,5.20
2023-03-29T00:57:37.366Z,5.12
2023-03-29T00:58:37.330Z,5.07
2023-03-29T00:59:37.315Z,5.07
2023-03-29T01:00:37.308Z,5.05
2023-03-29T01:01:37.315Z,4.95
2023-03-29T01:02:37.372Z,4.86
2023-03-29T01:03:45.319Z,4.96
2023-03-29T01:04:37.281Z,4.94
2023-03-29T01:05:37.253Z,4.91
2023-03-29T01:06:37.275Z,4.91
2023-03-29T01:07:37.260Z,4.77
2023-03-29T01:08:37.260Z,4.70
2023-03-29T01:09:37.217Z,4.67
2023-03-29T01:10:37.207Z,4.59
2023-03-29T01:11:37.190Z,4.61
2023-03-29T01:12:37.192Z,4.65
2023-03-29T01:13:37.173Z,4.61
2023-03-29T01:14:37.164Z,4.73
2023-03-29T01:15:37.153Z,4.62
2023-03-29T01:16:37.189Z,4.58
2023-03-29T01:17:37.216Z,4.64
2023-03-29T01:18:37.143Z,4.52
2023-03-29T01:19:37.105Z,4.59
2023-03-29T01:20:37.099Z,4.64
2023-03-29T01:21:37.085Z,4.62
2023-03-29T01:22:37.101Z,4.65
2023-03-29T01:23:37.066Z,4.59
2023-03-29T01:24:37.077Z,4.67
2023-03-29T01:25:37.040Z,4.72
2023-03-29T01:26:37.077Z,4.69
2023-03-29T01:27:37.020Z,4.83
2023-03-29T01:28:37.030Z,4.84
2023-03-29T01:29:37.002Z,4.77
2023-03-29T01:30:37.085Z,4.88
2023-03-29T01:31:37.032Z,4.72
2023-03-29T01:32:37.023Z,4.50
2023-03-29T01:33:37.008Z,4.55
2023-03-29T01:34:36.953Z,4.59
2023-03-29T01:35:36.957Z,4.59
2023-03-29T01:36:36.943Z,4.52
2023-03-29T01:37:36.923Z,4.51
2023-03-29T01:38:37.096Z,4.25
2023-03-29T01:39:36.901Z,4.12
2023-03-29T01:40:36.930Z,3.98
2023-03-29T01:41:36.876Z,3.98
2023-03-29T01:42:36.878Z,3.83
2023-03-29T01:43:37.130Z,3.88
2023-03-29T01:44:36.850Z,3.90
2023-03-29T01:45:36.840Z,3.75
2023-03-29T01:46:36.872Z,3.75
2023-03-29T01:47:36.856Z,3.67
2023-03-29T01:48:36.845Z,3.61
2023-03-29T01:49:36.790Z,3.76
2023-03-29T01:50:36.788Z,3.70
2023-03-29T01:51:36.771Z,3.76
2023-03-29T01:52:36.761Z,3.72
2023-03-29T01:53:36.770Z,3.64
2023-03-29T01:54:36.737Z,3.72
2023-03-29T01:55:36.725Z,3.64
2023-03-29T01:56:36.932Z,3.61
2023-03-29T01:57:36.714Z,3.52
2023-03-29T01:58:36.723Z,3.44
2023-03-29T01:59:36.679Z,3.52
2023-03-29T02:00:36.677Z,3.43
2023-03-29T02:01:36.703Z,3.39
2023-03-29T02:02:36.685Z,3.47
2023-03-29T02:03:36.685Z,3.47
2023-03-29T02:04:36.632Z,3.62
2023-03-29T02:05:36.625Z,3.65
2023-03-29T02:06:36.614Z,3.67
2023-03-29T02:07:36.605Z,3.61
2023-03-29T02:08:36.604Z,3.65
2023-03-29T02:09:36.581Z,3.70
2023-03-29T02:10:36.567Z,3.76
2023-03-29T02:11:36.571Z,3.83
2023-03-29T02:12:36.571Z,3.83
2023-03-29T02:13:36.546Z,3.83
2023-03-29T02:14:36.531Z,3.83
2023-03-29T02:15:36.575Z,3.98
2023-03-29T02:16:36.535Z,4.03
2023-03-29T02:17:36.501Z,4.14
2023-03-29T02:18:36.501Z,4.15
2023-03-29T02:19:36.470Z,4.22
2023-03-29T02:20:36.460Z,4.36
2023-03-29T02:21:36.448Z,4.39
2023-03-29T02:22:36.437Z,4.40
2023-03-29T02:23:36.439Z,4.51
2023-03-29T02:24:36.418Z,4.51
2023-03-29T02:25:36.402Z,4.62
2023-03-29T02:26:36.413Z,4.55
2023-03-29T02:27:36.384Z,4.57
2023-03-29T02:28:36.428Z,4.58
2023-03-29T02:29:36.369Z,4.61
2023-03-29T02:30:36.354Z,4.55
2023-03-29T02:31:36.466Z,4.50
2023-03-29T02:32:36.355Z,4.39
2023-03-29T02:33:36.332Z,4.40
2023-03-29T02:34:36.314Z,4.47
2023-03-29T02:35:36.418Z,4.43
2023-03-29T02:36:36.292Z,4.52
2023-03-29T02:37:36.288Z,4.59
2023-03-29T02:38:36.289Z,4.52
2023-03-29T02:39:36.257Z,4.43
2023-03-29T02:40:36.249Z,4.47
2023-03-29T02:41:36.240Z,4.42
2023-03-29T02:42:36.233Z,4.55
2023-03-29T02:43:36.228Z,4.44
2023-03-29T02:44:36.227Z,4.59
2023-03-29T02:45:36.193Z,4.57
2023-03-29T02:46:36.192Z,4.59
2023-03-29T02:47:36.205Z,4.67
2023-03-29T02:48:36.204Z,4.67
2023-03-29T02:49:36.157Z,4.64
2023-03-29T02:50:36.145Z,4.67
2023-03-29T02:51:36.136Z,4.67
2023-03-29T02:52:36.125Z,4.64
2023-03-29T02:53:36.140Z,4.59
2023-03-29T02:54:36.107Z,4.65
2023-03-29T02:55:36.100Z,4.61
2023-03-29T02:56:36.109Z,4.47
2023-03-29T02:57:36.091Z,4.44
2023-03-29T02:58:36.069Z,4.43
2023-03-29T02:59:36.055Z,4.39
2023-03-29T03:00:36.071Z,4.25
2023-03-29T03:01:36.080Z,4.36
2023-03-29T03:02:36.102Z,4.29
2023-03-29T03:03:36.117Z,4.42
2023-03-29T03:04:36.012Z,4.42
2023-03-29T03:05:35.992Z,4.28
2023-03-29T03:06:36.001Z,4.19
2023-03-29T03:07:35.968Z,4.21
2023-03-29T03:08:35.955Z,4.29
2023-03-29T03:09:35.949Z,4.29
2023-03-29T03:10:35.934Z,4.26
2023-03-29T03:11:35.936Z,4.22
2023-03-29T03:12:35.929Z,4.08
2023-03-29T03:13:35.911Z,4.06
2023-03-29T03:14:35.892Z,4.08
2023-03-29T03:15:35.965Z,4.01
2023-03-29T03:16:35.943Z,4.04
2023-03-29T03:17:35.914Z,4.06
2023-03-29T03:18:35.879Z,4.10
2023-03-29T03:19:35.836Z,4.19
2023-03-29T03:20:35.826Z,4.22
2023-03-29T03:21:35.820Z,4.19
2023-03-29T03:22:35.813Z,4.21
2023-03-29T03:23:35.815Z,4.03
2023-03-29T03:24:35.787Z,3.98
2023-03-29T03:25:35.774Z,4.01
2023-03-29T03:26:35.764Z,3.96
2023-03-29T03:27:35.750Z,4.04
2023-03-29T03:28:35.767Z,4.08
2023-03-29T03:29:35.737Z,4.12
2023-03-29T03:30:35.719Z,4.21
2023-03-29T03:31:35.728Z,4.19
2023-03-29T03:32:35.731Z,4.34
2023-03-29T03:33:35.694Z,4.12
2023-03-29T03:34:35.678Z,4.12
2023-03-29T03:35:35.686Z,4.15
2023-03-29T03:36:35.674Z,4.00
2023-03-29T03:37:35.650Z,3.92
2023-03-29T03:38:35.632Z,3.98
2023-03-29T03:39:35.625Z,4.03
2023-03-29T03:40:35.616Z,4.04
2023-03-29T03:41:35.622Z,4.07
2023-03-29T03:42:35.590Z,3.97
2023-03-29T03:43:35.578Z,4.14
2023-03-29T03:44:35.570Z,3.94
2023-03-29T03:45:35.562Z,3.97
2023-03-29T03:46:35.567Z,3.79
2023-03-29T03:47:35.575Z,3.75
2023-03-29T03:48:35.550Z,3.88
2023-03-29T03:49:35.515Z,3.80
2023-03-29T03:50:35.506Z,3.80
2023-03-29T03:51:35.508Z,3.70
2023-03-29T03:52:35.487Z,3.62
2023-03-29T03:53:35.496Z,3.60
2023-03-29T03:54:35.461Z,3.60
2023-03-29T03:55:35.460Z,3.65
2023-03-29T03:56:35.453Z,3.68
2023-03-29T03:57:35.432Z,3.79
2023-03-29T03:58:35.435Z,3.71
2023-03-29T03:59:35.408Z,3.64
2023-03-29T04:00:35.410Z,3.60
2023-03-29T04:01:35.446Z,3.65
2023-03-29T04:02:35.460Z,3.61
2023-03-29T04:03:35.562Z,3.57
2023-03-29T04:04:35.456Z,3.62
2023-03-29T04:05:35.352Z,3.70
2023-03-29T04:06:35.344Z,3.58
2023-03-29T04:07:35.326Z,3.54
2023-03-29T04:08:35.353Z,3.54
2023-03-29T04:09:35.303Z,3.50
2023-03-29T04:10:35.292Z,3.40
2023-03-29T04:11:35.285Z,3.34
2023-03-29T04:12:35.273Z,3.33
2023-03-29T04:13:35.287Z,3.43
2023-03-29T04:14:35.248Z,3.62
2023-03-29T04:15:35.289Z,3.42
2023-03-29T04:16:35.228Z,3.46
2023-03-29T04:17:35.289Z,3.42
2023-03-29T04:18:35.372Z,3.40
2023-03-29T04:19:35.200Z,3.42
2023-03-29T04:20:35.232Z,3.30
2023-03-29T04:21:35.176Z,3.39
2023-03-29T04:22:35.163Z,3.39
2023-03-29T04:23:35.169Z,3.50
2023-03-29T04:24:35.137Z,3.57
2023-03-29T04:25:35.132Z,3.54
2023-03-29T04:26:35.121Z,3.68
2023-03-29T04:27:35.121Z,3.57
2023-03-29T04:28:35.134Z,3.52
2023-03-29T04:29:35.110Z,3.42
2023-03-29T04:30:35.079Z,3.44
2023-03-29T04:31:35.117Z,3.27
2023-03-29T04:32:35.142Z,3.31
2023-03-29T04:33:35.070Z,3.27
2023-03-29T04:34:35.040Z,3.34
2023-03-29T04:35:35.058Z,3.30
2023-03-29T04:36:35.049Z,3.47
2023-03-29T04:37:35.036Z,3.57
2023-03-29T04:38:34.999Z,3.61
2023-03-29T04:39:35.014Z,3.65
2023-03-29T04:40:34.983Z,3.76
2023-03-29T04:41:34.975Z,3.68
2023-03-29T04:42:34.963Z,3.83
2023-03-29T04:43:34.948Z,3.75
2023-03-29T04:44:35.101Z,3.70
2023-03-29T04:45:34.931Z,3.40
2023-03-29T04:46:35.026Z,3.36
2023-03-29T04:47:34.920Z,3.52
2023-03-29T04:48:34.892Z,3.36
2023-03-29T04:49:34.907Z,3.30
2023-03-29T04:50:34.885Z,3.34
2023-03-29T04:51:34.886Z,3.28
2023-03-29T04:52:34.960Z,3.13
2023-03-29T04:53:34.874Z,2.97
2023-03-29T04:54:34.829Z,2.98
2023-03-29T04:55:34.830Z,2.95
2023-03-29T04:56:34.836Z,2.98
2023-03-29T04:57:34.803Z,3.00
2023-03-29T04:58:34.789Z,2.97
2023-03-29T04:59:34.798Z,2.95
2023-03-29T05:00:34.770Z,2.85
2023-03-29T05:01:34.780Z,2.79
2023-03-29T05:02:34.770Z,2.71
2023-03-29T05:03:34.738Z,2.82
2023-03-29T05:04:34.775Z,2.73
2023-03-29T05:05:34.712Z,2.71
2023-03-29T05:06:34.713Z,2.76
2023-03-29T05:07:34.697Z,2.76
2023-03-29T05:08:34.704Z,2.71
2023-03-29T05:09:35.566Z,2.84
2023-03-29T05:10:34.661Z,2.97
2023-03-29T05:11:34.651Z,2.87
2023-03-29T05:12:34.638Z,3.02
2023-03-29T05:13:34.632Z,2.98
2023-03-29T05:14:34.638Z,3.10
2023-03-29T05:15:34.616Z,3.12
2023-03-29T05:16:34.714Z,3.12
2023-03-29T05:17:34.620Z,3.20
2023-03-29T05:18:34.587Z,3.40
2023-03-29T05:19:34.630Z,3.39
2023-03-29T05:20:34.551Z,3.24
2023-03-29T05:21:34.550Z,3.28
2023-03-29T05:22:34.544Z,3.27
2023-03-29T05:23:34.520Z,3.23
2023-03-29T05:24:34.591Z,3.16
2023-03-29T05:25:34.518Z,3.13
2023-03-29T05:26:34.516Z,3.12
2023-03-29T05:27:34.520Z,3.16
2023-03-29T05:28:34.491Z,3.23
2023-03-29T05:29:34.507Z,3.31
2023-03-29T05:30:34.462Z,3.36
2023-03-29T05:31:34.498Z,3.53
2023-03-29T05:32:34.494Z,3.44
2023-03-29T05:33:34.485Z,3.42
2023-03-29T05:34:34.455Z,3.52
2023-03-29T05:35:34.436Z,3.40
2023-03-29T05:36:34.381Z,3.36
2023-03-29T05:37:34.404Z,3.43
2023-03-29T05:38:34.363Z,3.53
2023-03-29T05:39:37.073Z,3.62
2023-03-29T05:40:34.359Z,3.67
2023-03-29T05:41:34.329Z,3.65
2023-03-29T05:42:34.318Z,3.58
2023-03-29T05:43:34.309Z,3.62
2023-03-29T05:44:34.327Z,3.64
2023-03-29T05:45:34.358Z,3.67
2023-03-29T05:46:34.275Z,3.85
2023-03-29T05:47:34.285Z,3.89
2023-03-29T05:48:34.250Z,3.92
2023-03-29T05:49:34.261Z,4.06
2023-03-29T05:50:34.229Z,4.12
2023-03-29T05:51:34.221Z,4.25
2023-03-29T05:52:34.207Z,4.28
2023-03-29T05:53:34.199Z,4.32
2023-03-29T05:54:34.211Z,4.28
2023-03-29T05:55:34.186Z,4.37
2023-03-29T05:56:34.187Z,4.34
2023-03-29T05:57:34.165Z,4.39
2023-03-29T05:58:34.157Z,4.42
2023-03-29T05:59:34.154Z,4.54
2023-03-29T06:00:34.128Z,4.57
2023-03-29T06:01:34.137Z,4.61
2023-03-29T06:02:34.175Z,4.64
2023-03-29T06:03:34.219Z,4.58
2023-03-29T06:04:34.220Z,4.76
2023-03-29T06:05:34.084Z,4.80
2023-03-29T06:06:34.085Z,4.88
2023-03-29T06:07:34.054Z,4.86
2023-03-29T06:08:34.041Z,4.92
2023-03-29T06:09:34.100Z,4.94
2023-03-29T06:10:34.018Z,4.91
2023-03-29T06:11:34.013Z,4.89
2023-03-29T06:12:34.025Z,4.88
2023-03-29T06:13:34.057Z,5.04
2023-03-29T06:14:33.996Z,5.01
2023-03-29T06:15:33.967Z,5.13
2023-03-29T06:16:34.027Z,5.13
2023-03-29T06:17:33.990Z,5.25
2023-03-29T06:18:33.937Z,5.25
2023-03-29T06:19:33.942Z,5.23
2023-03-29T06:20:33.924Z,5.27
2023-03-29T06:21:33.903Z,5.31
2023-03-29T06:22:33.899Z,5.35
2023-03-29T06:23:33.884Z,5.35
2023-03-29T06:24:33.898Z,5.50
2023-03-29T06:25:33.876Z,5.55
2023-03-29T06:26:33.847Z,5.57
2023-03-29T06:27:33.883Z,5.63
2023-03-29T06:28:33.853Z,5.77
2023-03-29T06:29:33.858Z,5.78
2023-03-29T06:30:33.808Z,5.85
2023-03-29T06:31:33.833Z,5.86
2023-03-29T06:32:33.860Z,5.91
2023-03-29T06:33:33.803Z,5.98
2023-03-29T06:34:34.322Z,5.98
2023-03-29T06:35:33.830Z,5.95
2023-03-29T06:36:33.749Z,6.01
2023-03-29T06:37:33.746Z,5.93
2023-03-29T06:38:33.724Z,5.93
2023-03-29T06:39:33.736Z,5.96
2023-03-29T06:40:33.712Z,6.00
2023-03-29T06:41:33.824Z,6.03
2023-03-29T06:42:33.691Z,5.95
2023-03-29T06:43:33.672Z,6.00
2023-03-29T06:44:33.891Z,5.93
2023-03-29T06:45:33.649Z,5.86
2023-03-29T06:46:33.689Z,5.95
2023-03-29T06:47:33.677Z,6.00
2023-03-29T06:48:33.614Z,6.01
2023-03-29T06:49:33.673Z,6.03
2023-03-29T06:50:33.606Z,6.13
2023-03-29T06:51:33.728Z,6.04
2023-03-29T06:52:33.578Z,6.14
2023-03-29T06:53:33.569Z,6.13
2023-03-29T06:54:33.572Z,6.25
2023-03-29T06:55:33.546Z,6.30
2023-03-29T06:56:33.531Z,6.32
2023-03-29T06:57:33.808Z,6.36
2023-03-29T06:58:33.512Z,6.36
2023-03-29T06:59:33.520Z,6.43
2023-03-29T07:00:33.515Z,6.41
2023-03-29T07:01:33.570Z,6.61
2023-03-29T07:02:33.483Z,6.59
2023-03-29T07:03:41.292Z,6.61
2023-03-29T07:04:33.543Z,6.71
2023-03-29T07:05:33.445Z,6.84
2023-03-29T07:06:33.433Z,6.81
2023-03-29T07:07:33.413Z,6.84
2023-03-29T07:08:33.395Z,6.84
2023-03-29T07:09:33.453Z,6.86
2023-03-29T07:10:33.379Z,6.94
2023-03-29T07:11:33.500Z,6.91
2023-03-29T07:12:33.359Z,6.99
2023-03-29T07:13:33.357Z,7.01
2023-03-29T07:14:33.349Z,7.12
2023-03-29T07:15:33.331Z,7.05
2023-03-29T07:16:33.430Z,7.13
2023-03-29T07:17:33.323Z,7.23
2023-03-29T07:18:33.315Z,7.29
2023-03-29T07:19:33.301Z,7.47
2023-03-29T07:20:33.270Z,7.50
2023-03-29T07:21:34.449Z,7.42
2023-03-29T07:22:33.243Z,7.49
2023-03-29T07:23:33.293Z,7.49
2023-03-29T07:24:33.221Z,7.49
2023-03-29T07:25:33.397Z,7.45
2023-03-29T07:26:33.216Z,7.49
2023-03-29T07:27:33.190Z,7.49
2023-03-29T07:28:33.218Z,7.53
2023-03-29T07:29:33.231Z,7.58
2023-03-29T07:30:33.164Z,7.53
2023-03-29T07:31:33.180Z,7.53
2023-03-29T07:32:33.222Z,7.56
2023-03-29T07:33:33.402Z,7.59
2023-03-29T07:34:33.134Z,7.53
2023-03-29T07:35:33.233Z,7.63
2023-03-29T07:36:33.131Z,7.77
2023-03-29T07:37:33.093Z,7.77
2023-03-29T07:38:33.076Z,7.79
2023-03-29T07:39:33.067Z,7.85
2023-03-29T07:40:33.059Z,7.89
2023-03-29T07:41:33.067Z,7.93
2023-03-29T07:42:33.041Z,8.02
2023-03-29T07:43:33.041Z,7.85
2023-03-29T07:44:33.027Z,7.87
2023-03-29T07:45:33.053Z,7.82
2023-03-29T07:46:33.025Z,7.78
2023-03-29T07:47:33.068Z,7.90
2023-03-29T07:48:32.987Z,7.94
2023-03-29T07:49:32.999Z,7.94
2023-03-29T07:50:32.954Z,8.00
2023-03-29T07:51:32.928Z,8.03
2023-03-29T07:52:32.915Z,8.04
2023-03-29T07:53:32.910Z,8.20
2023-03-29T07:54:32.924Z,8.28
2023-03-29T07:55:32.900Z,8.36
2023-03-29T07:56:32.874Z,8.45
2023-03-29T07:57:32.863Z,8.45
2023-03-29T07:58:32.867Z,8.62
2023-03-29T07:59:32.866Z,8.57
2023-03-29T08:00:32.885Z,8.73
2023-03-29T08:01:32.886Z,8.84
2023-03-29T08:02:32.826Z,8.96
2023-03-29T08:03:32.842Z,9.06
2023-03-29T08:04:32.930Z,9.12
2023-03-29T08:05:40.743Z,9.05
2023-03-29T08:06:33.791Z,9.16
2023-03-29T08:07:32.753Z,9.18
2023-03-29T08:08:32.746Z,9.15
2023-03-29T08:09:32.737Z,9.15
2023-03-29T08:10:32.743Z,9.24
2023-03-29T08:11:32.714Z,9.21
2023-03-29T08:12:32.699Z,9.31
2023-03-29T08:13:32.714Z,9.40
2023-03-29T08:14:32.681Z,9.45
2023-03-29T08:15:32.745Z,9.60
2023-03-29T08:16:32.684Z,9.68
2023-03-29T08:17:32.669Z,9.64
2023-03-29T08:18:34.669Z,9.75
2023-03-29T08:19:32.636Z,9.82
2023-03-29T08:20:32.644Z,9.91
2023-03-29T08:21:32.605Z,9.78
2023-03-29T08:22:32.599Z,9.85
2023-03-29T08:23:32.595Z,9.85
2023-03-29T08:24:32.583Z,9.83
2023-03-29T08:25:32.589Z,10.00
2023-03-29T08:26:32.553Z,10.04
2023-03-29T08:27:32.540Z,10.18
2023-03-29T08:28:32.571Z,10.39
2023-03-29T08:29:32.546Z,10.44
2023-03-29T08:30:32.521Z,10.60
2023-03-29T08:31:32.531Z,10.74
2023-03-29T08:32:32.537Z,10.91
2023-03-29T08:33:32.475Z,11.09
2023-03-29T08:34:32.498Z,11.27
2023-03-29T08:35:32.568Z,11.54
2023-03-29T08:36:32.468Z,11.70
2023-03-29T08:37:32.434Z,11.78
2023-03-29T08:38:32.423Z,12.02
2023-03-29T08:39:32.418Z,12.20
2023-03-29T08:40:32.426Z,12.45
2023-03-29T08:41:32.432Z,12.64
2023-03-29T08:42:32.382Z,12.67
2023-03-29T08:43:32.370Z,13.02
2023-03-29T08:44:32.366Z,13.61
2023-03-29T08:45:32.349Z,14.25
2023-03-29T08:46:35.543Z,14.44
2023-03-29T08:47:32.382Z,14.93
2023-03-29T08:48:32.356Z,15.24
2023-03-29T08:49:32.357Z,14.88
2023-03-29T08:50:32.318Z,15.17
2023-03-29T08:51:32.279Z,15.19
2023-03-29T08:52:32.306Z,15.13
2023-03-29T08:53:32.263Z,14.93
2023-03-29T08:54:32.256Z,15.05
2023-03-29T08:55:32.289Z,15.17
2023-03-29T08:56:34.247Z,15.30
2023-03-29T08:57:32.233Z,15.31
2023-03-29T08:58:32.208Z,15.27
2023-03-29T08:59:32.202Z,15.48
2023-03-29T09:00:32.200Z,15.70
2023-03-29T09:01:32.209Z,15.70
2023-03-29T09:02:32.209Z,15.94
2023-03-29T09:03:32.342Z,15.97
2023-03-29T09:04:32.161Z,15.97
2023-03-29T09:05:32.145Z,16.22
2023-03-29T09:06:32.126Z,16.16
2023-03-29T09:07:32.107Z,16.12
2023-03-29T09:08:32.116Z,16.27
2023-03-29T09:09:32.082Z,16.01
2023-03-29T09:10:32.095Z,16.33
2023-03-29T09:11:32.064Z,16.53
2023-03-29T09:12:32.048Z,16.34
2023-03-29T09:13:32.065Z,16.34
2023-03-29T09:14:32.042Z,16.31
2023-03-29T09:15:32.049Z,16.20
2023-03-29T09:16:32.066Z,16.34
2023-03-29T09:17:32.073Z,16.15
2023-03-29T09:18:32.071Z,15.84
2023-03-29T09:19:32.049Z,15.70
2023-03-29T09:20:32.008Z,15.54
2023-03-29T09:21:32.031Z,15.24
2023-03-29T09:22:31.985Z,15.12
2023-03-29T09:23:31.953Z,14.91
2023-03-29T09:24:31.943Z,14.99
2023-03-29T09:25:36.208Z,15.23
2023-03-29T09:26:32.997Z,15.26
2023-03-29T09:27:31.898Z,15.38
2023-03-29T09:28:31.880Z,15.60
2023-03-29T09:29:31.866Z,15.49
2023-03-29T09:30:31.881Z,15.59
2023-03-29T09:31:31.867Z,15.94
2023-03-29T09:32:31.872Z,15.85
2023-03-29T09:33:31.821Z,15.85
2023-03-29T09:34:31.834Z,15.75
2023-03-29T09:35:31.829Z,15.92
2023-03-29T09:36:31.826Z,16.03
2023-03-29T09:37:31.796Z,16.27
2023-03-29T09:38:31.775Z,16.62
2023-03-29T09:39:31.767Z,16.75
2023-03-29T09:40:31.799Z,16.85
2023-03-29T09:41:31.749Z,16.52
2023-03-29T09:42:31.730Z,16.01
2023-03-29T09:43:31.717Z,15.93
2023-03-29T09:44:31.832Z,15.92
2023-03-29T09:45:31.716Z,15.81
2023-03-29T09:46:31.688Z,15.82
2023-03-29T09:47:31.728Z,16.01
2023-03-29T09:48:31.677Z,16.49
2023-03-29T09:49:31.667Z,16.89
2023-03-29T09:50:32.369Z,17.40
2023-03-29T09:51:31.672Z,17.32
2023-03-29T09:52:31.634Z,17.20
2023-03-29T09:53:31.625Z,17.40
2023-03-29T09:54:31.606Z,17.48
2023-03-29T09:55:31.627Z,17.26
2023-03-29T09:56:31.669Z,17.47
2023-03-29T09:57:31.611Z,17.62
2023-03-29T09:58:31.563Z,17.82
2023-03-29T09:59:31.548Z,17.63
2023-03-29T10:00:31.553Z,17.74
2023-03-29T10:01:31.577Z,17.50
2023-03-29T10:02:31.703Z,17.06
2023-03-29T10:03:31.510Z,17.20
2023-03-29T10:04:31.541Z,17.08
2023-03-29T10:05:31.501Z,17.04
2023-03-29T10:06:31.489Z,16.58
2023-03-29T10:07:31.466Z,16.31
2023-03-29T10:08:31.458Z,16.37
2023-03-29T10:09:31.460Z,16.41
2023-03-29T10:10:31.452Z,16.44
2023-03-29T10:11:31.494Z,16.67
2023-03-29T10:12:31.444Z,16.81
2023-03-29T10:13:31.398Z,17.00
2023-03-29T10:14:31.397Z,17.22
2023-03-29T10:15:31.400Z,17.11
2023-03-29T10:16:31.400Z,17.38
2023-03-29T10:17:31.404Z,17.64
2023-03-29T10:18:31.443Z,18.36
2023-03-29T10:19:31.336Z,18.50
2023-03-29T10:20:31.346Z,18.70
2023-03-29T10:21:31.334Z,18.43
2023-03-29T10:22:31.316Z,18.31
2023-03-29T10:23:31.312Z,18.22
2023-03-29T10:24:31.283Z,18.19
2023-03-29T10:25:31.315Z,18.24
2023-03-29T10:26:31.264Z,18.29
2023-03-29T10:27:31.262Z,18.25
2023-03-29T10:28:31.266Z,17.76
2023-03-29T10:29:31.245Z,17.94
2023-03-29T10:30:31.239Z,17.92
2023-03-29T10:31:31.258Z,18.13
2023-03-29T10:32:31.235Z,17.99
2023-03-29T10:33:31.204Z,17.57
2023-03-29T10:34:31.178Z,17.00
2023-03-29T10:35:31.200Z,17.23
2023-03-29T10:36:31.225Z,17.55
2023-03-29T10:37:31.144Z,17.18
2023-03-29T10:38:31.134Z,16.44
2023-03-29T10:39:31.131Z,15.60
2023-03-29T10:40:31.130Z,15.27
2023-03-29T10:41:31.131Z,15.60
2023-03-29T10:42:31.101Z,15.81
2023-03-29T10:43:31.084Z,15.49
2023-03-29T10:44:32.919Z,15.13
2023-03-29T10:45:31.068Z,15.03
2023-03-29T10:46:31.217Z,14.74
2023-03-29T10:47:31.060Z,14.84
2023-03-29T10:48:31.048Z,14.80
2023-03-29T10:49:31.021Z,14.67
2023-03-29T10:50:31.033Z,14.64
2023-03-29T10:51:30.994Z,14.44
2023-03-29T10:52:30.992Z,14.28
2023-03-29T10:53:30.979Z,14.34
2023-03-29T10:54:30.965Z,14.14
2023-03-29T10:55:30.982Z,14.04
2023-03-29T10:56:30.946Z,13.80
2023-03-29T10:57:30.979Z,13.59
2023-03-29T10:58:30.928Z,13.69
2023-03-29T10:59:30.907Z,13.61
2023-03-29T11:00:31.065Z,13.58
2023-03-29T11:01:30.953Z,13.58
2023-03-29T11:02:30.935Z,13.51
2023-03-29T11:03:30.925Z,13.37
2023-03-29T11:04:30.874Z,13.54
2023-03-29T11:05:31.046Z,13.61
2023-03-29T11:06:30.833Z,13.51
2023-03-29T11:07:30.822Z,13.47
2023-03-29T11:08:32.048Z,13.44
2023-03-29T11:09:30.799Z,13.37
2023-03-29T11:10:31.133Z,13.37
2023-03-29T11:11:30.774Z,13.21
2023-03-29T11:12:30.769Z,13.03
2023-03-29T11:13:30.762Z,12.93
2023-03-29T11:14:30.745Z,12.85
2023-03-29T11:15:31.014Z,12.84
2023-03-29T11:16:30.750Z,12.79
2023-03-29T11:17:30.737Z,12.63
2023-03-29T11:18:30.741Z,12.51
2023-03-29T11:19:30.695Z,12.39
2023-03-29T11:20:30.697Z,12.41
2023-03-29T11:21:30.669Z,12.41
2023-03-29T11:22:30.667Z,12.44
2023-03-29T11:23:30.662Z,12.59
2023-03-29T11:24:30.645Z,12.54
2023-03-29T11:25:30.635Z,12.67
2023-03-29T11:26:30.626Z,12.63
2023-03-29T11:27:30.603Z,12.66
2023-03-29T11:28:30.592Z,12.57
2023-03-29T11:29:30.585Z,12.51
2023-03-29T11:30:31.402Z,12.48
2023-03-29T11:31:30.615Z,12.63
2023-03-29T11:32:30.629Z,12.56
2023-03-29T11:33:30.541Z,12.48
2023-03-29T11:34:30.544Z,12.46
2023-03-29T11:35:30.574Z,12.45
2023-03-29T11:36:30.623Z,12.45
2023-03-29T11:37:30.496Z,12.51
2023-03-29T11:38:30.497Z,12.59
2023-03-29T11:39:30.475Z,12.67
2023-03-29T11:40:30.470Z,12.64
2023-03-29T11:41:30.478Z,12.70
2023-03-29T11:42:30.442Z,12.56
2023-03-29T11:43:30.456Z,12.63
2023-03-29T11:44:30.422Z,12.54
2023-03-29T11:45:30.411Z,12.70
2023-03-29T11:46:30.503Z,12.75
2023-03-29T11:47:30.420Z,12.89
2023-03-29T11:48:30.402Z,13.07
2023-03-29T11:49:30.387Z,13.06
2023-03-29T11:50:30.391Z,13.00
2023-03-29T11:51:30.369Z,12.88
2023-03-29T11:52:30.340Z,12.79
2023-03-29T11:53:30.325Z,12.81
2023-03-29T11:54:30.319Z,12.82
2023-03-29T11:55:30.305Z,13.04
2023-03-29T11:56:30.309Z,13.04
2023-03-29T11:57:30.336Z,13.03
2023-03-29T11:58:30.272Z,13.03
2023-03-29T11:59:30.255Z,13.11
2023-03-29T12:00:30.250Z,13.17
2023-03-29T12:01:30.261Z,13.00
2023-03-29T12:02:30.277Z,13.07
2023-03-29T12:03:30.260Z,12.96
2023-03-29T12:04:30.285Z,13.06
2023-03-29T12:05:30.191Z,13.07
2023-03-29T12:06:30.192Z,13.09
2023-03-29T12:07:30.179Z,13.00
2023-03-29T12:08:30.158Z,12.95
2023-03-29T12:09:30.147Z,12.92
2023-03-29T12:10:30.139Z,12.88
2023-03-29T12:11:30.135Z,13.02
2023-03-29T12:12:30.120Z,13.15
2023-03-29T12:13:30.101Z,13.15
2023-03-29T12:14:30.094Z,13.06
2023-03-29T12:15:30.086Z,13.06
2023-03-29T12:16:30.171Z,13.17
2023-03-29T12:17:30.092Z,13.03
2023-03-29T12:18:30.048Z,13.04
2023-03-29T12:19:30.055Z,13.03
2023-03-29T12:20:30.046Z,13.04
2023-03-29T12:21:30.035Z,13.15
2023-03-29T12:22:30.004Z,13.21
2023-03-29T12:23:30.003Z,13.21
2023-03-29T12:24:30.033Z,13.32
2023-03-29T12:25:29.972Z,13.29
2023-03-29T12:26:29.971Z,13.21
2023-03-29T12:27:29.961Z,13.15
2023-03-29T12:28:29.938Z,13.18
2023-03-29T12:29:29.933Z,13.29
2023-03-29T12:30:29.958Z,13.17
2023-03-29T12:31:29.971Z,13.22
2023-03-29T12:32:30.017Z,13.20
2023-03-29T12:33:29.911Z,13.18
2023-03-29T12:34:29.876Z,13.02
2023-03-29T12:35:29.878Z,13.06
2023-03-29T12:36:29.895Z,13.03
2023-03-29T12:37:29.848Z,13.00
2023-03-29T12:38:30.826Z,13.02
2023-03-29T12:39:29.825Z,12.99
2023-03-29T12:40:29.810Z,13.04
2023-03-29T12:41:29.818Z,13.07
2023-03-29T12:42:29.791Z,13.00
2023-03-29T12:43:29.786Z,13.06
2023-03-29T12:44:29.771Z,13.12
2023-03-29T12:45:29.781Z,13.07
2023-03-29T12:46:29.842Z,13.02
2023-03-29T12:47:29.764Z,13.00
2023-03-29T12:48:29.741Z,13.07
2023-03-29T12:49:29.727Z,13.03
2023-03-29T12:50:29.727Z,13.09
2023-03-29T12:51:29.744Z,12.99
2023-03-29T12:52:29.718Z,13.00
2023-03-29T12:53:29.676Z,13.03
2023-03-29T12:54:29.663Z,12.93
2023-03-29T12:55:29.658Z,12.99
2023-03-29T12:56:29.652Z,13.04
2023-03-29T12:57:29.640Z,13.07
2023-03-29T12:58:29.640Z,12.87
2023-03-29T12:59:29.630Z,12.84
2023-03-29T13:00:29.646Z,12.84
2023-03-29T13:01:29.768Z,12.82
2023-03-29T13:02:29.646Z,12.89
2023-03-29T13:03:37.467Z,12.93
2023-03-29T13:04:29.560Z,12.96
2023-03-29T13:05:29.590Z,12.92
2023-03-29T13:06:29.555Z,13.02
2023-03-29T13:07:29.546Z,13.04
2023-03-29T13:08:29.548Z,13.04